createdAt,value
2018-07-26T00:15:08.348Z,89.90
2018-07-26T00:20:04.841Z,90.00
2018-07-26T00:25:01.324Z,90.10
2018-07-26T00:29:56.795Z,90.20
2018-07-26T00:40:08.596Z,90.20
2018-07-26T00:45:05.772Z,90.40
2018-07-26T00:50:02.697Z,90.60
2018-07-26T00:54:59.946Z,90.70
2018-07-26T00:59:55.537Z,90.70
2018-07-26T01:04:59.020Z,90.80
2018-07-26T01:10:03.160Z,90.50
2018-07-26T01:15:04.535Z,90.50
2018-07-26T01:20:00.850Z,91.10
2018-07-26T01:24:58.635Z,91.40
2018-07-26T01:29:53.971Z,91.40
2018-07-26T01:34:59.310Z,91.70
2018-07-26T01:40:03.597Z,91.70
2018-07-26T01:45:24.152Z,92.00
2018-07-26T01:50:20.820Z,92.20
2018-07-26T02:01:16.636Z,92.10
2018-07-26T02:06:11.419Z,91.90
2018-07-26T02:11:09.708Z,92.20
2018-07-26T02:16:07.039Z,92.20
2018-07-26T02:21:05.031Z,92.30
2018-07-26T02:26:07.644Z,92.20
2018-07-26T02:31:06.513Z,92.20
2018-07-26T02:36:02.954Z,92.30
2018-07-26T02:40:58.326Z,92.40
2018-07-26T02:45:53.653Z,92.30
2018-07-26T02:50:51.450Z,92.20
2018-07-26T02:55:48.723Z,92.20
2018-07-26T03:00:45.651Z,92.30
2018-07-26T03:05:43.393Z,92.40
2018-07-26T03:10:38.223Z,92.60
2018-07-26T03:15:57.809Z,92.70
2018-07-26T03:21:04.259Z,92.80
2018-07-26T03:26:00.016Z,92.60
2018-07-26T03:35:53.440Z,92.60
2018-07-26T03:40:54.329Z,92.80
2018-07-26T03:45:52.749Z,93.10
2018-07-26T03:50:52.681Z,93.10
2018-07-26T03:55:47.433Z,92.90
2018-07-26T04:00:45.306Z,92.60
2018-07-26T04:05:42.797Z,92.20
2018-07-26T04:10:37.772Z,92.50
2018-07-26T04:15:33.635Z,92.40
2018-07-26T04:20:32.153Z,92.20
2018-07-26T04:25:28.999Z,91.60
2018-07-26T04:35:21.613Z,74.90
2018-07-26T04:40:16.998Z,74.20
2018-07-26T04:45:13.311Z,67.60
2018-07-26T05:00:03.580Z,56.90
2018-07-26T05:09:53.962Z,51.40
2018-07-26T05:14:50.878Z,56.00
2018-07-26T05:19:46.704Z,54.10
2018-07-26T05:24:56.194Z,56.30
2018-07-26T05:29:52.685Z,57.70
2018-07-26T05:34:57.309Z,57.10
2018-07-26T05:40:03.024Z,55.40
2018-07-26T05:45:07.651Z,52.00
2018-07-26T05:50:04.981Z,52.80
2018-07-26T05:55:00.252Z,57.80
2018-07-26T05:59:56.725Z,52.40
2018-07-26T06:04:52.004Z,45.60
2018-07-26T06:09:47.730Z,42.90
2018-07-26T06:14:46.021Z,40.30
2018-07-26T06:19:47.004Z,36.40
2018-07-26T06:24:44.090Z,32.60
2018-07-26T06:29:38.968Z,33.10
2018-07-26T06:34:36.133Z,30.50
2018-07-26T06:39:33.432Z,30.00
2018-07-26T06:44:30.031Z,29.80
2018-07-26T06:49:50.892Z,29.50
2018-07-26T06:54:48.629Z,30.00
2018-07-26T06:59:44.193Z,31.30
2018-07-26T07:04:41.917Z,33.60
2018-07-26T07:09:37.708Z,43.40
2018-07-26T07:14:40.642Z,46.40
2018-07-26T07:19:36.680Z,47.10
2018-07-26T07:24:33.494Z,46.20
2018-07-26T07:29:30.284Z,41.80
2018-07-26T07:39:21.838Z,38.20
2018-07-26T07:44:17.846Z,36.60
2018-07-26T07:49:14.872Z,35.80
2018-07-26T07:54:11.398Z,35.70
2018-07-26T07:59:14.557Z,36.90
2018-07-26T08:04:12.061Z,36.90
2018-07-26T08:09:12.123Z,36.00
2018-07-26T08:19:03.725Z,33.10
2018-07-26T08:23:58.851Z,32.60
2018-07-26T08:28:55.511Z,31.10
2018-07-26T08:33:50.496Z,30.20
2018-07-26T08:43:55.261Z,30.30
2018-07-26T08:49:21.097Z,31.60
2018-07-26T08:54:25.661Z,28.20
2018-07-26T08:59:21.213Z,26.90
2018-07-26T09:09:14.579Z,26.40
2018-07-26T09:14:10.425Z,26.40
2018-07-26T09:19:06.698Z,26.70
2018-07-26T09:24:05.431Z,24.90
2018-07-26T09:29:03.417Z,24.40
2018-07-26T09:33:59.102Z,26.10
2018-07-26T09:38:54.093Z,29.30
2018-07-26T09:43:49.330Z,27.20
2018-07-26T09:53:40.785Z,21.10
2018-07-26T09:58:36.357Z,24.20
2018-07-26T10:03:43.177Z,24.70
2018-07-26T10:08:40.283Z,24.40
2018-07-26T10:13:35.815Z,23.40
2018-07-26T10:23:28.726Z,22.00
2018-07-26T10:33:34.908Z,24.40
2018-07-26T10:38:38.643Z,26.80
2018-07-26T10:43:35.597Z,23.90
2018-07-26T10:48:31.449Z,21.70
2018-07-26T10:53:27.724Z,23.80
2018-07-26T10:58:26.106Z,24.70
2018-07-26T11:14:16.460Z,24.20
2018-07-26T11:19:20.432Z,23.70
2018-07-26T11:24:24.949Z,26.50
2018-07-26T11:29:28.454Z,28.80
2018-07-26T11:34:23.795Z,30.50
2018-07-26T11:39:20.293Z,31.00
2018-07-26T11:44:20.798Z,30.90
2018-07-26T11:49:17.720Z,31.00
2018-07-26T11:54:20.023Z,30.00
2018-07-26T11:59:41.908Z,28.30
2018-07-26T12:04:49.349Z,29.10
2018-07-26T12:09:46.034Z,28.50
2018-07-26T12:14:42.076Z,30.00
2018-07-26T12:19:37.939Z,30.30
2018-07-26T12:37:37.238Z,31.10
2018-07-26T12:42:33.796Z,30.90
2018-07-26T12:47:29.507Z,33.90
2018-07-26T12:52:25.661Z,34.60
2018-07-26T13:02:17.362Z,35.30
2018-07-26T13:07:15.041Z,34.90
2018-07-26T13:13:23.634Z,34.30
2018-07-26T13:18:19.107Z,32.50
2018-07-26T13:23:15.811Z,33.10
2018-07-26T13:28:13.096Z,33.80
2018-07-26T13:33:09.508Z,33.10
2018-07-26T13:38:05.912Z,33.60
2018-07-26T13:43:03.730Z,35.00
2018-07-26T13:47:58.892Z,36.20
2018-07-26T13:52:55.104Z,36.00
2018-07-26T13:57:51.048Z,35.60
2018-07-26T14:02:47.862Z,35.80
2018-07-26T14:08:06.248Z,34.60
2018-07-26T14:13:11.367Z,34.30
2018-07-26T14:18:07.858Z,33.90
2018-07-26T14:23:04.631Z,33.50
2018-07-26T14:28:08.868Z,33.00
2018-07-26T14:33:08.617Z,33.90
2018-07-26T14:43:26.152Z,33.40
2018-07-26T14:53:51.683Z,31.50
2018-07-26T14:58:47.513Z,30.90
2018-07-26T15:03:43.953Z,31.30
2018-07-26T15:08:41.469Z,31.40
2018-07-26T15:13:42.560Z,29.80
2018-07-26T15:18:40.182Z,31.60
2018-07-26T15:23:36.571Z,30.40
2018-07-26T15:28:33.200Z,31.00
2018-07-26T15:33:35.825Z,31.10
2018-07-26T15:43:25.923Z,30.80
2018-07-26T15:48:24.027Z,30.00
2018-07-26T15:53:21.632Z,29.70
2018-07-26T15:58:17.900Z,30.00
2018-07-26T16:03:14.604Z,30.30
2018-07-26T16:08:12.577Z,30.10
2018-07-26T16:13:08.294Z,30.10
2018-07-26T16:23:04.351Z,30.10
2018-07-26T16:27:59.990Z,30.80
2018-07-26T16:33:04.342Z,30.50
2018-07-26T16:38:09.560Z,31.30
2018-07-26T16:43:15.761Z,30.30
2018-07-26T16:58:20.464Z,30.00
2018-07-26T17:03:16.467Z,31.10
2018-07-26T17:08:12.426Z,30.80
2018-07-26T17:13:17.723Z,30.70
2018-07-26T17:18:17.421Z,31.00
2018-07-26T17:23:12.844Z,31.30
2018-07-26T17:28:11.263Z,31.70
2018-07-26T17:33:06.355Z,32.30
2018-07-26T17:38:04.345Z,32.60
2018-07-26T17:43:00.320Z,32.80
2018-07-26T17:47:59.541Z,33.10
2018-07-26T17:52:55.112Z,33.50
2018-07-26T17:58:13.375Z,34.00
2018-07-26T18:03:16.538Z,34.50
2018-07-26T18:08:11.881Z,34.80
2018-07-26T18:13:07.350Z,35.00
2018-07-26T18:18:03.386Z,35.20
2018-07-26T18:23:26.469Z,35.50
2018-07-26T18:28:49.201Z,35.50
2018-07-26T18:34:07.206Z,36.20
2018-07-26T18:39:12.152Z,36.40
2018-07-26T18:44:08.049Z,36.90
2018-07-26T18:49:04.642Z,37.40
2018-07-26T18:54:00.244Z,38.10
2018-07-26T18:58:55.272Z,38.20
2018-07-26T19:03:52.758Z,38.40
2018-07-26T19:08:55.176Z,39.90
2018-07-26T19:13:59.490Z,39.70
2018-07-26T19:19:03.654Z,40.60
2018-07-26T19:23:59.160Z,40.40
2018-07-26T19:28:55.030Z,42.20
2018-07-26T19:33:50.872Z,41.50
2018-07-26T19:38:54.923Z,42.00
2018-07-26T19:43:50.956Z,42.20
2018-07-26T19:48:46.382Z,43.20
2018-07-26T19:53:41.525Z,43.80
2018-07-26T19:58:45.286Z,44.10
2018-07-26T20:03:51.943Z,44.50
2018-07-26T20:08:53.025Z,44.40
2018-07-26T20:18:47.000Z,45.20
2018-07-26T20:23:43.238Z,45.90
2018-07-26T20:28:40.045Z,45.80
2018-07-26T20:33:35.948Z,45.90
2018-07-26T20:38:32.538Z,46.10
2018-07-26T20:43:28.472Z,46.10
2018-07-26T20:48:24.795Z,46.70
2018-07-26T20:53:20.538Z,47.20
2018-07-26T20:58:16.395Z,47.60
2018-07-26T21:03:11.382Z,47.70
2018-07-26T21:08:06.607Z,47.90
2018-07-26T21:13:03.204Z,48.10
2018-07-26T21:17:58.995Z,48.50
2018-07-26T21:22:56.600Z,49.20
2018-07-26T21:27:59.399Z,49.20
2018-07-26T21:32:55.510Z,49.70
2018-07-26T21:37:53.018Z,50.50
2018-07-26T21:42:48.858Z,50.80
2018-07-26T21:52:40.534Z,52.10
2018-07-26T21:57:36.748Z,52.90
2018-07-26T22:02:32.714Z,53.30
2018-07-26T22:07:27.789Z,54.60
2018-07-26T22:12:24.070Z,54.80
2018-07-26T22:17:31.985Z,55.00
2018-07-26T22:22:27.428Z,56.10
2018-07-26T22:27:23.763Z,56.30
2018-07-26T22:32:19.853Z,57.10
2018-07-26T22:37:15.828Z,57.50
2018-07-26T22:42:13.256Z,58.10
2018-07-26T22:47:10.080Z,58.40
2018-07-26T22:52:08.366Z,58.70
2018-07-26T22:57:07.255Z,59.10
2018-07-26T23:02:05.735Z,59.30
2018-07-26T23:07:05.368Z,59.90
2018-07-26T23:12:00.729Z,60.10
2018-07-26T23:16:57.399Z,61.00
2018-07-26T23:21:53.130Z,61.20
2018-07-26T23:26:48.971Z,61.90
2018-07-26T23:31:43.954Z,61.60
2018-07-26T23:36:41.898Z,62.30
2018-07-26T23:41:39.757Z,62.00
2018-07-26T23:46:37.376Z,62.80
2018-07-26T23:51:34.030Z,63.10
2018-07-26T23:56:29.584Z,63.00
